createdAt,value
2023-04-11T00:01:54.346Z,20.58
2023-04-11T00:04:22.922Z,20.90
2023-04-11T00:06:50.437Z,20.48
2023-04-11T00:09:18.005Z,21.17
2023-04-11T00:11:48.046Z,20.60
2023-04-11T00:14:15.472Z,22.75
2023-04-11T00:16:42.911Z,22.48
2023-04-11T00:19:10.704Z,20.90
2023-04-11T00:21:40.890Z,21.73
2023-04-11T00:24:08.407Z,21.33
2023-04-11T00:26:36.032Z,21.67
2023-04-11T00:29:03.540Z,21.85
2023-04-11T00:31:30.984Z,22.02
2023-04-11T00:33:58.895Z,22.60
2023-04-11T00:36:27.136Z,22.17
2023-04-11T00:39:35.250Z,21.15
2023-04-11T00:42:23.958Z,20.43
2023-04-11T00:45:36.713Z,20.75
2023-04-11T00:48:12.847Z,20.83
2023-04-11T00:50:41.895Z,21.33
2023-04-11T00:53:11.455Z,21.80
2023-04-11T00:55:39.411Z,20.80
2023-04-11T00:58:08.224Z,19.27
2023-04-11T01:00:35.680Z,17.80
2023-04-11T01:03:03.266Z,16.80
2023-04-11T01:05:33.330Z,17.10
2023-04-11T01:08:01.380Z,17.30
2023-04-11T01:10:30.901Z,21.40
2023-04-11T01:13:01.702Z,20.85
2023-04-11T01:15:29.245Z,20.30
2023-04-11T01:17:57.922Z,19.75
2023-04-11T01:20:26.452Z,21.05
2023-04-11T01:22:54.422Z,20.85
2023-04-11T01:25:22.501Z,22.52
2023-04-11T01:27:50.311Z,22.15
2023-04-11T01:30:17.823Z,21.70
2023-04-11T01:32:45.486Z,21.65
2023-04-11T01:35:13.602Z,21.00
2023-04-11T01:37:41.139Z,22.30
2023-04-11T01:40:09.567Z,22.27
2023-04-11T01:42:39.083Z,22.77
2023-04-11T01:45:07.448Z,23.35
2023-04-11T01:47:34.966Z,22.48
2023-04-11T01:50:02.700Z,23.08
2023-04-11T01:52:30.351Z,22.05
2023-04-11T01:54:57.805Z,21.80
2023-04-11T01:57:26.433Z,21.35
2023-04-11T01:59:53.867Z,20.15
2023-04-11T02:02:21.285Z,19.77
2023-04-11T02:04:49.007Z,17.65
2023-04-11T02:07:16.411Z,15.90
2023-04-11T02:09:43.831Z,15.35
2023-04-11T02:12:11.446Z,17.92
2023-04-11T02:14:42.365Z,20.27
2023-04-11T02:17:12.853Z,21.62
2023-04-11T02:19:45.615Z,20.88
2023-04-11T02:22:13.129Z,22.48
2023-04-11T02:24:41.073Z,21.17
2023-04-11T02:27:09.336Z,21.95
2023-04-11T02:29:36.775Z,22.00
2023-04-11T02:32:04.539Z,23.17
2023-04-11T02:34:32.086Z,21.83
2023-04-11T02:36:59.460Z,22.40
2023-04-11T02:39:27.828Z,23.48
2023-04-11T02:41:57.363Z,22.75
2023-04-11T02:44:26.328Z,22.70
2023-04-11T02:46:55.387Z,24.03
2023-04-11T02:49:23.117Z,23.08
2023-04-11T02:51:51.837Z,23.23
2023-04-11T02:54:19.608Z,24.05
2023-04-11T02:56:47.123Z,24.92
2023-04-11T02:59:14.542Z,26.17
2023-04-11T03:01:42.904Z,26.95
2023-04-11T03:04:10.600Z,27.62
2023-04-11T03:06:39.482Z,26.20
2023-04-11T03:09:07.255Z,25.42
2023-04-11T03:11:34.678Z,25.30
2023-04-11T03:14:02.919Z,26.52
2023-04-11T03:16:30.598Z,26.02
2023-04-11T03:18:58.739Z,26.10
2023-04-11T03:21:26.560Z,25.35
2023-04-11T03:23:54.440Z,25.42
2023-04-11T03:26:22.370Z,25.40
2023-04-11T03:28:49.901Z,24.87
2023-04-11T03:31:19.046Z,22.70
2023-04-11T03:33:47.000Z,22.67
2023-04-11T03:36:14.591Z,25.83
2023-04-11T03:38:42.459Z,23.62
2023-04-11T03:41:11.145Z,22.65
2023-04-11T03:43:38.927Z,23.15
2023-04-11T03:46:07.009Z,23.65
2023-04-11T03:48:35.277Z,24.15
2023-04-11T03:51:03.293Z,24.93
2023-04-11T03:53:31.882Z,30.15
2023-04-11T03:56:00.299Z,25.70
2023-04-11T03:58:28.795Z,25.10
2023-04-11T04:00:56.796Z,24.08
2023-04-11T04:03:24.973Z,24.48
2023-04-11T04:05:53.267Z,24.67
2023-04-11T04:08:22.775Z,25.48
2023-04-11T04:10:51.826Z,25.12
2023-04-11T04:13:19.417Z,25.35
2023-04-11T04:15:47.678Z,25.25
2023-04-11T04:18:16.398Z,24.83
2023-04-11T04:20:44.183Z,24.43
2023-04-11T04:23:14.213Z,23.90
2023-04-11T04:25:43.366Z,24.37
2023-04-11T04:28:11.617Z,24.50
2023-04-11T04:30:39.278Z,25.12
2023-04-11T04:33:12.214Z,24.20
2023-04-11T04:35:40.088Z,22.52
2023-04-11T04:38:08.859Z,22.40
2023-04-11T04:40:40.110Z,21.55
2023-04-11T04:43:11.582Z,21.77
2023-04-11T04:45:39.698Z,21.47
2023-04-11T04:48:07.771Z,21.50
2023-04-11T04:50:35.544Z,21.10
2023-04-11T04:53:02.941Z,20.02
2023-04-11T04:55:33.368Z,22.10
2023-04-11T04:58:01.173Z,20.20
2023-04-11T05:00:29.535Z,18.85
2023-04-11T05:02:58.669Z,20.37
2023-04-11T05:05:29.234Z,20.80
2023-04-11T05:07:57.278Z,21.10
2023-04-11T05:10:24.740Z,20.60
2023-04-11T05:12:53.600Z,19.73
2023-04-11T05:15:23.453Z,20.48
2023-04-11T05:17:50.898Z,20.52
2023-04-11T05:20:18.870Z,20.43
2023-04-11T05:22:48.878Z,20.48
2023-04-11T05:25:18.041Z,19.77
2023-04-11T05:27:46.144Z,20.05
2023-04-11T05:30:14.229Z,20.23
2023-04-11T05:32:42.990Z,19.50
2023-04-11T05:35:11.058Z,17.58
2023-04-11T05:37:39.889Z,18.12
2023-04-11T05:40:08.922Z,18.60
2023-04-11T05:42:36.353Z,18.45
2023-04-11T05:45:04.332Z,18.40
2023-04-11T05:47:32.274Z,18.08
2023-04-11T05:49:59.816Z,17.27
2023-04-11T05:52:27.565Z,17.93
2023-04-11T05:54:54.988Z,17.35
2023-04-11T05:57:23.581Z,18.30
2023-04-11T05:59:53.182Z,18.33
2023-04-11T06:02:21.241Z,20.92
2023-04-11T06:04:49.202Z,24.53
2023-04-11T06:07:16.725Z,36.72
2023-04-11T06:09:44.346Z,31.70
2023-04-11T06:12:12.002Z,23.23
2023-04-11T06:14:40.669Z,18.87
2023-04-11T06:17:08.236Z,19.40
2023-04-11T06:19:35.925Z,19.93
2023-04-11T06:22:03.423Z,19.20
2023-04-11T06:24:39.118Z,18.87
2023-04-11T06:27:10.045Z,17.90
2023-04-11T06:29:38.664Z,18.92
2023-04-11T06:32:06.774Z,18.25
2023-04-11T06:34:34.523Z,19.52
2023-04-11T06:37:01.955Z,19.40
2023-04-11T06:39:29.345Z,19.42
2023-04-11T06:41:56.986Z,23.35
2023-04-11T06:44:24.826Z,21.48
2023-04-11T06:46:52.425Z,22.67
2023-04-11T06:49:20.778Z,20.77
2023-04-11T06:51:50.114Z,19.52
2023-04-11T06:54:18.223Z,22.62
2023-04-11T06:56:46.064Z,21.42
2023-04-11T06:59:14.062Z,20.10
2023-04-11T07:01:41.518Z,20.90
2023-04-11T07:04:09.473Z,19.60
2023-04-11T07:06:37.042Z,19.75
2023-04-11T07:09:05.067Z,18.60
2023-04-11T07:11:33.424Z,19.47
2023-04-11T07:14:01.393Z,18.70
2023-04-11T07:16:28.937Z,19.07
2023-04-11T07:18:57.539Z,18.17
2023-04-11T07:21:25.147Z,18.20
2023-04-11T07:23:53.553Z,17.00
2023-04-11T07:26:23.905Z,17.27
2023-04-11T07:28:51.370Z,16.70
2023-04-11T07:31:21.555Z,14.07
2023-04-11T07:33:49.637Z,13.80
2023-04-11T07:36:17.663Z,14.00
2023-04-11T07:38:45.344Z,14.27
2023-04-11T07:41:13.164Z,15.02
2023-04-11T07:43:40.760Z,15.25
2023-04-11T07:46:08.225Z,13.98
2023-04-11T07:48:35.982Z,15.77
2023-04-11T07:51:03.348Z,14.70
2023-04-11T07:53:33.240Z,15.77
2023-04-11T07:56:01.529Z,15.77
2023-04-11T07:58:30.146Z,16.00
2023-04-11T08:00:58.614Z,15.20
2023-04-11T08:03:27.180Z,15.40
2023-04-11T08:05:55.037Z,15.15
2023-04-11T08:08:22.626Z,14.15
2023-04-11T08:10:52.227Z,13.57
2023-04-11T08:13:19.800Z,13.75
2023-04-11T08:15:47.236Z,14.85
2023-04-11T08:18:16.349Z,15.45
2023-04-11T08:20:43.907Z,15.63
2023-04-11T08:23:11.574Z,15.15
2023-04-11T08:25:39.267Z,15.05
2023-04-11T08:28:06.956Z,14.90
2023-04-11T08:30:34.330Z,15.23
2023-04-11T08:33:02.205Z,14.35
2023-04-11T08:35:29.856Z,15.95
2023-04-11T08:37:57.350Z,16.67
2023-04-11T08:40:26.985Z,17.45
2023-04-11T08:43:00.856Z,16.92
2023-04-11T08:45:29.327Z,17.13
2023-04-11T08:47:56.787Z,16.98
2023-04-11T08:50:24.415Z,17.55
2023-04-11T08:52:52.862Z,17.92
2023-04-11T08:55:20.400Z,19.30
2023-04-11T08:57:48.022Z,19.95
2023-04-11T09:00:19.159Z,20.37
2023-04-11T09:03:04.831Z,20.70
2023-04-11T09:05:38.732Z,20.88
2023-04-11T09:08:14.432Z,20.27
2023-04-11T09:10:47.738Z,21.33
2023-04-11T09:13:25.988Z,20.92
2023-04-11T09:16:06.156Z,20.10
2023-04-11T09:18:34.431Z,21.30
2023-04-11T09:21:04.932Z,21.17
2023-04-11T09:23:32.437Z,21.90
2023-04-11T09:26:00.189Z,22.10
2023-04-11T09:28:28.106Z,21.63
2023-04-11T09:30:56.419Z,22.17
2023-04-11T09:33:26.169Z,21.98
2023-04-11T09:35:55.709Z,20.88
2023-04-11T09:38:33.115Z,20.83
2023-04-11T09:41:02.401Z,19.87
2023-04-11T09:43:59.529Z,20.73
2023-04-11T09:46:27.357Z,20.40
2023-04-11T09:48:56.175Z,17.48
2023-04-11T09:51:35.679Z,18.37
2023-04-11T09:54:05.511Z,16.30
2023-04-11T09:56:36.702Z,18.20
2023-04-11T09:59:05.264Z,17.17
2023-04-11T10:01:33.299Z,17.00
2023-04-11T10:04:01.689Z,17.12
2023-04-11T10:07:09.142Z,15.80
2023-04-11T10:09:42.167Z,16.35
2023-04-11T10:12:09.617Z,16.33
2023-04-11T10:14:41.818Z,18.05
2023-04-11T10:17:23.410Z,20.80
2023-04-11T10:19:56.720Z,19.60
2023-04-11T10:22:46.583Z,18.85
2023-04-11T10:25:18.778Z,18.52
2023-04-11T10:27:50.107Z,18.80
2023-04-11T10:30:17.874Z,16.25
2023-04-11T10:33:13.905Z,18.10
2023-04-11T10:36:12.790Z,18.35
2023-04-11T10:38:41.003Z,16.98
2023-04-11T10:41:17.565Z,16.15
2023-04-11T10:43:46.025Z,17.77
2023-04-11T10:46:32.093Z,16.65
2023-04-11T10:49:04.600Z,17.20
2023-04-11T10:51:33.147Z,16.12
2023-04-11T10:54:01.048Z,14.80
2023-04-11T10:56:45.445Z,15.82
2023-04-11T10:59:31.507Z,16.77
2023-04-11T11:02:02.415Z,16.47
2023-04-11T11:04:35.014Z,13.15
2023-04-11T11:07:07.209Z,14.30
2023-04-11T11:09:35.456Z,15.43
2023-04-11T11:12:12.486Z,15.38
2023-04-11T11:14:41.673Z,13.38
2023-04-11T11:17:09.357Z,13.55
2023-04-11T11:19:36.841Z,12.13
2023-04-11T11:22:06.202Z,10.80
2023-04-11T11:24:33.671Z,12.13
2023-04-11T11:27:01.125Z,13.43
2023-04-11T11:29:34.664Z,13.45
2023-04-11T11:32:05.926Z,13.30
2023-04-11T11:34:35.282Z,13.03
2023-04-11T11:37:06.885Z,12.57
2023-04-11T11:39:35.444Z,12.37
2023-04-11T11:42:03.469Z,11.85
2023-04-11T11:44:31.345Z,13.82
2023-04-11T11:47:06.205Z,13.45
2023-04-11T11:49:47.520Z,13.60
2023-04-11T11:52:34.471Z,15.90
2023-04-11T11:55:03.340Z,15.50
2023-04-11T11:57:31.890Z,14.13
2023-04-11T12:00:01.484Z,14.52
2023-04-11T12:02:29.195Z,12.32
2023-04-11T12:05:00.941Z,10.50
2023-04-11T12:07:33.349Z,10.45
2023-04-11T12:10:02.212Z,11.02
2023-04-11T12:12:37.212Z,13.77
2023-04-11T12:15:17.984Z,13.10
2023-04-11T12:17:55.206Z,13.62
2023-04-11T12:20:23.992Z,13.83
2023-04-11T12:22:53.009Z,14.80
2023-04-11T12:25:21.904Z,14.05
2023-04-11T12:27:49.587Z,14.07
2023-04-11T12:30:17.334Z,11.10
2023-04-11T12:32:45.471Z,12.15
2023-04-11T12:35:13.358Z,11.27
2023-04-11T12:37:43.283Z,11.12
2023-04-11T12:40:12.270Z,8.90
2023-04-11T12:45:11.805Z,8.20
2023-04-11T12:47:39.386Z,10.25
2023-04-11T12:50:08.102Z,9.25
2023-04-11T12:52:36.621Z,8.70
2023-04-11T12:55:04.801Z,8.60
2023-04-11T12:57:33.862Z,8.80
2023-04-11T13:00:01.278Z,8.80
2023-04-11T13:02:31.238Z,8.80
2023-04-11T13:05:06.444Z,8.95
2023-04-11T13:07:34.998Z,9.07
2023-04-11T13:10:03.742Z,9.13
2023-04-11T13:12:31.481Z,8.35
2023-04-11T13:14:58.923Z,8.23
2023-04-11T13:17:26.733Z,8.38
2023-04-11T13:19:54.160Z,7.95
2023-04-11T13:22:21.548Z,8.05
2023-04-11T13:24:49.202Z,8.25
2023-04-11T13:27:16.685Z,8.10
2023-04-11T13:29:44.075Z,8.55
2023-04-11T13:32:11.790Z,8.27
2023-04-11T13:34:39.185Z,8.13
2023-04-11T13:37:06.780Z,8.15
2023-04-11T13:39:34.839Z,7.95
2023-04-11T13:42:02.418Z,7.72
2023-04-11T13:44:29.862Z,8.07
2023-04-11T13:46:57.566Z,7.60
2023-04-11T13:49:25.022Z,7.43
2023-04-11T13:51:52.422Z,7.83
2023-04-11T13:54:20.055Z,7.50
2023-04-11T13:56:47.433Z,7.45
2023-04-11T13:59:15.007Z,7.53
2023-04-11T14:01:43.019Z,6.93
2023-04-11T14:04:11.876Z,5.85
2023-04-11T14:06:39.732Z,5.28
2023-04-11T14:09:07.750Z,4.90
2023-04-11T14:11:35.758Z,4.87
2023-04-11T14:14:03.253Z,4.55
2023-04-11T14:16:30.640Z,5.87
2023-04-11T14:18:58.271Z,5.68
2023-04-11T14:23:56.422Z,6.00
2023-04-11T14:26:24.527Z,6.03
2023-04-11T14:28:51.894Z,5.30
2023-04-11T14:31:19.634Z,5.70
2023-04-11T14:33:49.012Z,5.22
2023-04-11T14:36:16.477Z,4.80
2023-04-11T14:38:43.881Z,5.00
2023-04-11T14:41:13.643Z,5.93
2023-04-11T14:43:41.271Z,5.53
2023-04-11T14:46:09.024Z,5.87
2023-04-11T14:48:36.882Z,6.25
2023-04-11T14:51:04.821Z,6.15
2023-04-11T14:53:32.530Z,6.90
2023-04-11T14:56:04.708Z,7.45
2023-04-11T14:58:32.721Z,7.12
2023-04-11T15:01:00.355Z,8.10
2023-04-11T15:03:28.038Z,7.85
2023-04-11T15:05:55.690Z,8.68
2023-04-11T15:08:23.307Z,9.57
2023-04-11T15:10:54.265Z,10.57
2023-04-11T15:13:22.856Z,10.98
2023-04-11T15:15:51.436Z,12.98
2023-04-11T15:18:20.409Z,12.50
2023-04-11T15:20:48.100Z,12.18
2023-04-11T15:23:16.386Z,12.40
2023-04-11T15:25:43.879Z,12.00
2023-04-11T15:28:11.376Z,10.82
2023-04-11T15:30:47.698Z,11.13
2023-04-11T15:33:16.204Z,12.88
2023-04-11T15:35:45.030Z,12.10
2023-04-11T15:38:13.759Z,12.45
2023-04-11T15:40:41.239Z,12.85
2023-04-11T15:43:09.140Z,13.55
2023-04-11T15:45:37.545Z,14.40
2023-04-11T15:48:05.588Z,14.85
2023-04-11T15:50:33.260Z,14.90
2023-04-11T15:53:00.663Z,13.73
2023-04-11T15:55:28.674Z,13.93
2023-04-11T15:57:56.925Z,14.80
2023-04-11T16:00:24.568Z,11.88
2023-04-11T16:02:52.478Z,10.18
2023-04-11T16:05:20.971Z,11.02
2023-04-11T16:07:48.864Z,9.90
2023-04-11T16:10:16.536Z,10.10
2023-04-11T16:12:43.936Z,8.50
2023-04-11T16:15:11.514Z,6.95
2023-04-11T16:17:39.386Z,7.87
2023-04-11T16:20:10.156Z,7.53
2023-04-11T16:22:39.640Z,10.10
2023-04-11T16:25:07.556Z,8.45
2023-04-11T16:27:35.049Z,7.47
2023-04-11T16:30:05.367Z,7.32
2023-04-11T16:32:32.789Z,8.07
2023-04-11T16:35:00.970Z,8.68
2023-04-11T16:37:28.718Z,8.77
2023-04-11T16:39:56.540Z,9.82
2023-04-11T16:42:24.032Z,9.90
2023-04-11T16:44:51.689Z,10.80
2023-04-11T16:47:20.513Z,10.97
2023-04-11T16:49:47.925Z,10.55
2023-04-11T16:52:15.593Z,13.32
2023-04-11T16:54:42.989Z,11.70
2023-04-11T16:57:10.419Z,11.40
2023-04-11T16:59:38.176Z,11.57
2023-04-11T17:02:05.847Z,11.27
2023-04-11T17:04:33.735Z,11.00
2023-04-11T17:07:01.625Z,11.18
2023-04-11T17:09:29.429Z,14.60
2023-04-11T17:11:57.758Z,15.90
2023-04-11T17:14:25.400Z,14.38
2023-04-11T17:16:53.335Z,14.65
2023-04-11T17:19:20.751Z,14.85
2023-04-11T17:21:48.373Z,14.48
2023-04-11T17:24:15.918Z,15.32
2023-04-11T17:26:43.337Z,14.55
2023-04-11T17:29:11.089Z,14.40
2023-04-11T17:31:38.561Z,15.10
2023-04-11T17:34:06.055Z,13.48
2023-04-11T17:36:33.687Z,14.23
2023-04-11T17:39:01.076Z,14.80
2023-04-11T17:41:28.512Z,17.30
2023-04-11T17:43:56.907Z,13.88
2023-04-11T17:46:24.673Z,13.30
2023-04-11T17:48:52.098Z,13.32
2023-04-11T17:51:19.778Z,12.60
2023-04-11T17:53:47.117Z,12.07
2023-04-11T17:56:14.899Z,11.50
2023-04-11T17:58:44.836Z,10.93
2023-04-11T18:01:12.859Z,11.18
2023-04-11T18:03:41.269Z,9.63
2023-04-11T18:06:08.966Z,9.57
2023-04-11T18:11:11.086Z,9.27
2023-04-11T18:13:38.651Z,7.90
2023-04-11T18:16:06.655Z,7.80
2023-04-11T18:18:34.641Z,6.70
2023-04-11T18:21:05.035Z,7.23
2023-04-11T18:23:35.692Z,6.43
2023-04-11T18:26:03.317Z,7.10
2023-04-11T18:28:30.769Z,6.80
2023-04-11T18:30:58.549Z,6.25
2023-04-11T18:33:26.990Z,5.90
2023-04-11T18:35:55.159Z,6.28
2023-04-11T18:38:23.070Z,6.85
2023-04-11T18:40:54.922Z,6.57
2023-04-11T18:43:25.672Z,6.40
2023-04-11T18:45:53.527Z,6.35
2023-04-11T18:48:21.533Z,6.43
2023-04-11T18:50:59.216Z,6.47
2023-04-11T18:53:28.567Z,7.03
2023-04-11T18:55:58.258Z,7.07
2023-04-11T18:58:28.332Z,7.97
2023-04-11T19:00:58.150Z,7.10
2023-04-11T19:03:26.860Z,7.18
2023-04-11T19:05:55.433Z,6.68
2023-04-11T19:08:24.200Z,6.10
2023-04-11T19:10:52.869Z,6.12
2023-04-11T19:13:21.091Z,5.97
2023-04-11T19:15:49.299Z,6.10
2023-04-11T19:18:17.635Z,6.22
2023-04-11T19:20:45.884Z,6.25
2023-04-11T19:23:14.668Z,5.90
2023-04-11T19:25:43.448Z,6.18
2023-04-11T19:28:11.753Z,5.82
2023-04-11T19:30:39.847Z,6.60
2023-04-11T19:33:09.207Z,6.60
2023-04-11T19:35:38.573Z,6.23
2023-04-11T19:38:08.421Z,6.55
2023-04-11T19:40:36.869Z,6.47
2023-04-11T19:43:04.989Z,6.22
2023-04-11T19:45:33.312Z,6.20
2023-04-11T19:48:03.296Z,6.40
2023-04-11T19:50:33.214Z,6.95
2023-04-11T19:53:01.682Z,7.12
2023-04-11T19:55:29.703Z,8.00
2023-04-11T19:57:58.207Z,8.50
2023-04-11T20:00:31.954Z,7.62
2023-04-11T20:03:06.364Z,6.80
2023-04-11T20:05:34.599Z,6.65
2023-04-11T20:08:03.512Z,6.43
2023-04-11T20:10:34.723Z,6.30
2023-04-11T20:13:06.174Z,6.20
2023-04-11T20:15:34.590Z,6.00
2023-04-11T20:18:03.145Z,5.70
2023-04-11T20:20:33.882Z,4.93
2023-04-11T20:23:05.406Z,3.87
2023-04-11T20:25:34.836Z,3.30
2023-04-11T20:28:03.518Z,2.78
2023-04-11T20:30:30.946Z,2.93
2023-04-11T20:32:58.429Z,2.43
2023-04-11T20:35:26.189Z,2.70
2023-04-11T20:37:54.125Z,3.20
2023-04-11T20:40:21.621Z,2.90
2023-04-11T20:42:49.559Z,2.60
2023-04-11T20:45:20.639Z,2.70
2023-04-11T20:47:49.756Z,2.85
2023-04-11T20:50:17.691Z,3.25
2023-04-11T20:52:46.902Z,2.90
2023-04-11T20:55:14.562Z,2.72
2023-04-11T20:57:42.378Z,2.55
2023-04-11T21:00:14.326Z,2.83
2023-04-11T21:02:44.168Z,2.80
2023-04-11T21:05:13.304Z,2.42
2023-04-11T21:07:42.058Z,2.60
2023-04-11T21:10:10.490Z,2.40
2023-04-11T21:12:38.197Z,2.45
2023-04-11T21:15:06.781Z,2.33
2023-04-11T21:17:35.576Z,2.33
2023-04-11T21:20:11.199Z,2.40
2023-04-11T21:22:40.280Z,2.58
2023-04-11T21:25:08.210Z,2.30
2023-04-11T21:27:35.652Z,2.40
2023-04-11T21:30:03.585Z,2.50
2023-04-11T21:32:31.018Z,2.57
2023-04-11T21:34:58.584Z,2.47
2023-04-11T21:37:26.335Z,2.20
2023-04-11T21:39:56.964Z,2.33
2023-04-11T21:42:24.411Z,2.28
2023-04-11T21:44:52.087Z,2.03
2023-04-11T21:47:19.653Z,2.40
2023-04-11T21:49:47.474Z,2.53
2023-04-11T21:52:15.393Z,2.30
2023-04-11T21:54:43.712Z,2.30
2023-04-11T21:57:11.259Z,2.20
2023-04-11T21:59:39.304Z,2.30
2023-04-11T22:02:06.961Z,2.10
2023-04-11T22:04:41.334Z,2.33
2023-04-11T22:07:15.121Z,1.87
2023-04-11T22:09:46.911Z,2.10
2023-04-11T22:12:17.703Z,2.20
2023-04-11T22:14:45.354Z,2.40
2023-04-11T22:17:13.106Z,2.62
2023-04-11T22:19:42.301Z,2.60
2023-04-11T22:22:10.211Z,2.70
2023-04-11T22:24:38.353Z,2.60
2023-04-11T22:27:10.329Z,2.58
2023-04-11T22:29:38.630Z,2.45
2023-04-11T22:32:06.269Z,2.42
2023-04-11T22:34:33.768Z,2.43
2023-04-11T22:37:01.470Z,2.37
2023-04-11T22:39:28.928Z,2.53
2023-04-11T22:41:56.306Z,2.53
2023-04-11T22:44:23.956Z,2.28
2023-04-11T22:47:13.647Z,2.03
2023-04-11T22:49:42.225Z,2.28
2023-04-11T22:52:15.020Z,2.10
2023-04-11T22:54:43.285Z,1.83
2023-04-11T22:57:10.713Z,1.90
2023-04-11T22:59:38.116Z,1.80
2023-04-11T23:02:06.548Z,2.10
2023-04-11T23:04:33.993Z,1.80
2023-04-11T23:07:01.439Z,1.80
2023-04-11T23:09:29.143Z,1.60
2023-04-11T23:11:56.601Z,1.85
2023-04-11T23:14:30.892Z,1.95
2023-04-11T23:16:58.599Z,1.60
2023-04-11T23:19:27.334Z,1.73
2023-04-11T23:21:55.566Z,1.77
2023-04-11T23:24:23.236Z,1.73
2023-04-11T23:26:50.834Z,1.80
2023-04-11T23:29:18.453Z,1.80
2023-04-11T23:31:46.112Z,2.00
2023-04-11T23:34:14.013Z,2.20
2023-04-11T23:36:42.150Z,1.80
2023-04-11T23:39:09.923Z,2.28
2023-04-11T23:41:37.377Z,2.28
2023-04-11T23:44:04.718Z,2.35
2023-04-11T23:46:32.436Z,2.20
2023-04-11T23:49:01.443Z,2.20
2023-04-11T23:51:28.849Z,2.50
2023-04-11T23:53:57.297Z,1.77
2023-04-11T23:56:24.867Z,2.42
2023-04-11T23:58:52.304Z,2.60
